Time;durP1;ratioP1;P1;durP2;ratioP2;P2;SDS_P1;SDS_P2;PMS_P1;PMS_P2;Temp;Humidity;BMP_temperature;BMP_pressure;BME280_temperature;BME280_humidity;BME280_pressure;Samples;Min_cycle;Max_cycle;Signal;HPM_P1;HPM_P2
2022/09/15 00:01:44;;;;;;;0.20;0.20;;;11.70;99.90;;;;;;5012864;28;20414;-73
2022/09/15 00:04:09;;;;;;;0.10;0.10;;;11.80;99.90;;;;;;5031730;28;20121;-73
2022/09/15 00:06:35;;;;;;;0.00;0.00;;;11.90;99.90;;;;;;5013246;28;20136;-73
2022/09/15 00:09:03;;;;;;;0.00;0.00;;;11.90;99.90;;;;;;5030650;28;20480;-75
2022/09/15 00:11:31;;;;;;;0.00;0.00;;;12.00;99.90;;;;;;4996811;28;20541;-73
2022/09/15 00:14:01;;;;;;;2.60;0.13;;;12.10;99.90;;;;;;5014122;28;20041;-73
2022/09/15 00:16:29;;;;;;;0.00;0.00;;;12.20;99.90;;;;;;5034023;28;20041;-75
2022/09/15 00:18:56;;;;;;;0.30;0.25;;;12.30;99.90;;;;;;5032887;28;20118;-74
2022/09/15 00:21:29;;;;;;;0.00;0.00;;;12.40;99.90;;;;;;5015029;28;20415;-75
2022/09/15 00:23:55;;;;;;;0.00;0.00;;;12.40;99.90;;;;;;5033559;28;20052;-74
2022/09/15 00:26:24;;;;;;;0.00;0.00;;;13.30;99.90;;;;;;5013230;28;20550;-74
2022/09/15 00:28:50;;;;;;;0.13;0.00;;;12.50;99.90;;;;;;5029259;28;20100;-76
2022/09/15 00:31:24;;;;;;;0.10;0.10;;;12.60;99.90;;;;;;5029564;28;20500;-75
2022/09/15 00:33:54;;;;;;;0.00;0.00;;;12.60;99.90;;;;;;5033548;28;20049;-77
2022/09/15 00:36:42;;;;;;;0.17;0.10;;;12.70;99.90;;;;;;5017711;28;20113;-75
2022/09/15 00:39:08;;;;;;;0.10;0.10;;;12.90;99.90;;;;;;5033942;28;20395;-76
2022/09/15 00:41:34;;;;;;;0.00;0.00;;;12.90;99.90;;;;;;5013257;28;20128;-76
2022/09/15 00:44:25;;;;;;;0.08;0.08;;;13.00;99.90;;;;;;5030619;28;20057;-77
2022/09/15 00:46:54;;;;;;;0.00;0.00;;;12.80;99.90;;;;;;5033344;28;20633;-75
2022/09/15 00:49:25;;;;;;;0.00;0.00;;;12.80;99.90;;;;;;5016373;28;20053;-75
2022/09/15 00:51:57;;;;;;;0.00;0.00;;;12.80;99.90;;;;;;5034802;28;20084;-77
2022/09/15 00:54:35;;;;;;;0.15;0.15;;;12.80;99.90;;;;;;5034034;28;20042;-75
2022/09/15 00:57:06;;;;;;;0.10;0.10;;;12.90;99.90;;;;;;5032804;28;20050;-76
2022/09/15 00:59:35;;;;;;;0.00;0.00;;;12.80;99.90;;;;;;5014327;28;20420;-77
2022/09/15 01:02:34;;;;;;;0.00;0.00;;;12.80;99.90;;;;;;5030708;28;20139;-76
2022/09/15 01:05:03;;;;;;;1.35;0.40;;;12.80;99.90;;;;;;5031431;28;20404;-75
2022/09/15 01:07:56;;;;;;;0.20;0.20;;;12.80;99.90;;;;;;5032977;28;20093;-74
2022/09/15 01:10:32;;;;;;;0.38;0.10;;;12.80;99.90;;;;;;5015036;28;20073;-76
2022/09/15 01:13:03;;;;;;;0.57;0.40;;;12.80;99.90;;;;;;5014860;28;20088;-75
2022/09/15 01:16:05;;;;;;;0.10;0.10;;;12.80;99.90;;;;;;4999562;28;20516;-77
2022/09/15 01:18:48;;;;;;;1.60;0.63;;;12.80;99.90;;;;;;5002691;28;20053;-75
2022/09/15 01:21:25;;;;;;;0.00;0.00;;;12.70;99.90;;;;;;5031599;28;20089;-74
2022/09/15 01:24:09;;;;;;;0.03;0.03;;;12.70;99.90;;;;;;5031800;28;20045;-76
2022/09/15 01:27:03;;;;;;;2.92;0.63;;;12.60;99.90;;;;;;5034298;28;20053;-74
2022/09/15 01:29:39;;;;;;;0.00;0.00;;;12.50;99.90;;;;;;5036411;28;20045;-76
2022/09/15 01:35:18;;;;;;;0.00;0.00;;;12.50;99.90;;;;;;5007552;28;20053;-75
2022/09/15 01:37:51;;;;;;;0.00;0.00;;;12.50;99.90;;;;;;5036134;28;20473;-74
2022/09/15 01:40:18;;;;;;;0.00;0.00;;;12.40;99.90;;;;;;5035257;28;20667;-75
2022/09/15 01:42:46;;;;;;;0.00;0.00;;;12.50;99.90;;;;;;5034879;28;20518;-75
2022/09/15 01:45:20;;;;;;;0.00;0.00;;;12.40;99.90;;;;;;5034788;28;20091;-76
2022/09/15 01:47:49;;;;;;;1.75;0.73;;;12.40;99.90;;;;;;5033689;28;20045;-74
2022/09/15 01:50:17;;;;;;;0.05;0.05;;;12.50;99.90;;;;;;5001389;28;20108;-76
2022/09/15 01:52:47;;;;;;;0.03;0.03;;;12.50;99.90;;;;;;5034141;28;20400;-74
2022/09/15 01:55:21;;;;;;;0.08;0.08;;;12.40;99.90;;;;;;5016828;28;20569;-76
2022/09/15 01:57:47;;;;;;;0.00;0.00;;;12.40;99.90;;;;;;5111437;23;20129;-73
2022/09/15 02:00:13;;;;;;;0.57;0.40;;;12.30;99.90;;;;;;5040992;28;20053;-72
2022/09/15 02:02:54;;;;;;;0.00;0.00;;;12.30;99.90;;;;;;5039792;28;20045;-72
2022/09/15 02:05:33;;;;;;;0.00;0.00;;;12.20;99.90;;;;;;5041376;28;20037;-72
2022/09/15 02:08:24;;;;;;;0.00;0.00;;;12.30;99.90;;;;;;5058390;28;20045;-73
2022/09/15 02:11:14;;;;;;;0.30;0.22;;;12.20;99.90;;;;;;5039762;28;20107;-74
2022/09/15 02:13:58;;;;;;;0.00;0.00;;;12.10;99.90;;;;;;5040881;28;20180;-72
2022/09/15 02:16:28;;;;;;;0.10;0.10;;;12.10;99.90;;;;;;5059352;28;20068;-74
2022/09/15 02:19:16;;;;;;;0.08;0.05;;;12.20;99.90;;;;;;5041136;28;20076;-73
2022/09/15 02:22:01;;;;;;;0.10;0.10;;;12.20;99.90;;;;;;5039555;28;20037;-74
2022/09/15 02:24:34;;;;;;;0.15;0.10;;;12.40;99.90;;;;;;5038495;28;20124;-72
2022/09/15 02:27:06;;;;;;;0.00;0.00;;;12.50;99.90;;;;;;5036982;28;20188;-72
2022/09/15 02:29:35;;;;;;;0.50;0.20;;;12.60;99.90;;;;;;5045480;28;20045;-72
2022/09/15 02:32:03;;;;;;;0.10;0.10;;;12.70;99.90;;;;;;5054586;28;20044;-74
2022/09/15 02:34:39;;;;;;;0.32;0.32;;;12.80;99.90;;;;;;5054224;28;20044;-75
2022/09/15 02:37:06;;;;;;;0.10;0.10;;;12.80;99.90;;;;;;5057896;28;20074;-73
2022/09/15 02:39:36;;;;;;;0.00;0.00;;;12.90;99.90;;;;;;5057617;28;20120;-71
2022/09/15 02:42:02;;;;;;;1.45;0.50;;;12.90;99.90;;;;;;5057053;28;20071;-74
2022/09/15 02:44:29;;;;;;;0.10;0.08;;;12.90;99.90;;;;;;5058988;28;20049;-70
2022/09/15 02:46:57;;;;;;;0.45;0.45;;;12.80;99.90;;;;;;5056953;28;20618;-74
2022/09/15 02:49:23;;;;;;;1.00;0.15;;;12.90;99.90;;;;;;5060726;28;20053;-74
2022/09/15 02:51:48;;;;;;;0.00;0.00;;;12.80;99.90;;;;;;5060960;28;20123;-75
2022/09/15 02:54:14;;;;;;;0.17;0.08;;;12.80;99.90;;;;;;5060434;28;20041;-73
2022/09/15 02:56:40;;;;;;;0.00;0.00;;;12.70;99.90;;;;;;5058530;28;20103;-73
2022/09/15 02:59:05;;;;;;;0.30;0.30;;;12.70;99.90;;;;;;5059131;28;20539;-72
2022/09/15 03:01:33;;;;;;;0.00;0.00;;;12.70;99.90;;;;;;5057995;28;20052;-72
2022/09/15 03:04:00;;;;;;;0.00;0.00;;;12.70;99.90;;;;;;5057454;28;20052;-73
2022/09/15 03:06:33;;;;;;;0.00;0.00;;;12.70;99.90;;;;;;5040721;28;20053;-74
2022/09/15 03:09:00;;;;;;;0.73;0.17;;;12.70;99.90;;;;;;5039355;28;20053;-74
2022/09/15 03:11:27;;;;;;;0.00;0.00;;;12.60;99.90;;;;;;5038841;28;20073;-72
2022/09/15 03:13:55;;;;;;;0.00;0.00;;;12.60;99.90;;;;;;5038837;28;20034;-73
2022/09/15 03:16:21;;;;;;;0.15;0.15;;;12.50;99.90;;;;;;5040651;28;20038;-72
2022/09/15 03:18:47;;;;;;;0.00;0.00;;;12.50;99.90;;;;;;5039034;28;20043;-74
2022/09/15 03:21:14;;;;;;;0.00;0.00;;;12.50;99.90;;;;;;5039834;28;20073;-74
2022/09/15 03:23:40;;;;;;;0.00;0.00;;;12.50;99.90;;;;;;5040487;28;20518;-74
2022/09/15 03:26:07;;;;;;;0.00;0.00;;;12.40;99.90;;;;;;5040097;28;20057;-72
2022/09/15 03:28:34;;;;;;;0.00;0.00;;;12.40;99.90;;;;;;5040800;28;20059;-74
2022/09/15 03:30:59;;;;;;;0.00;0.00;;;12.60;99.90;;;;;;5040208;28;20037;-75
2022/09/15 03:33:25;;;;;;;0.32;0.10;;;12.40;99.90;;;;;;5039762;28;20044;-73
2022/09/15 03:35:51;;;;;;;0.00;0.00;;;12.40;99.90;;;;;;5039373;28;20103;-73
2022/09/15 03:38:17;;;;;;;0.00;0.00;;;12.40;99.90;;;;;;5039726;28;20037;-72
2022/09/15 03:40:43;;;;;;;0.00;0.00;;;12.40;99.90;;;;;;5039203;28;20120;-72
2022/09/15 03:43:10;;;;;;;0.30;0.28;;;12.40;99.90;;;;;;5039138;28;20068;-72
2022/09/15 03:45:38;;;;;;;0.63;0.43;;;12.40;99.90;;;;;;5040116;28;20053;-73
2022/09/15 03:48:05;;;;;;;0.00;0.00;;;12.40;99.90;;;;;;5039615;28;20041;-73
2022/09/15 03:50:32;;;;;;;0.10;0.10;;;12.60;99.90;;;;;;5040517;28;20053;-74
2022/09/15 03:53:01;;;;;;;0.10;0.00;;;12.40;99.90;;;;;;5039122;28;20427;-72
2022/09/15 03:55:27;;;;;;;0.08;0.03;;;12.40;99.90;;;;;;5038820;28;20032;-73
2022/09/15 03:57:53;;;;;;;0.40;0.35;;;12.40;99.90;;;;;;5036315;28;20057;-73
2022/09/15 04:00:19;;;;;;;0.00;0.00;;;12.40;99.90;;;;;;5037996;28;20041;-73
2022/09/15 04:02:45;;;;;;;0.00;0.00;;;12.40;99.90;;;;;;5038765;28;20112;-73
2022/09/15 04:05:12;;;;;;;0.00;0.00;;;12.40;99.90;;;;;;5036737;28;20385;-73
2022/09/15 04:07:38;;;;;;;0.28;0.28;;;12.40;99.90;;;;;;5037501;28;20075;-72
2022/09/15 04:10:05;;;;;;;0.10;0.10;;;12.50;99.90;;;;;;5018052;28;20466;-72
2022/09/15 04:12:31;;;;;;;12.85;0.45;;;12.50;99.90;;;;;;5036442;28;20041;-72
2022/09/15 04:14:57;;;;;;;6.20;0.45;;;12.50;99.90;;;;;;5035891;28;20044;-71
2022/09/15 04:17:22;;;;;;;0.00;0.00;;;12.50;99.90;;;;;;5035959;28;20520;-74
2022/09/15 04:19:48;;;;;;;0.10;0.00;;;12.50;99.90;;;;;;5037486;28;20041;-74
2022/09/15 04:22:14;;;;;;;0.00;0.00;;;12.50;99.90;;;;;;5037806;28;20038;-73
2022/09/15 04:24:40;;;;;;;0.00;0.00;;;12.40;99.90;;;;;;5038382;28;20052;-73
2022/09/15 04:27:06;;;;;;;0.00;0.00;;;12.40;99.90;;;;;;5038479;28;20073;-74
2022/09/15 04:29:31;;;;;;;0.10;0.10;;;12.40;99.90;;;;;;5038448;28;20045;-73
2022/09/15 04:31:57;;;;;;;0.00;0.00;;;12.30;99.90;;;;;;5039947;28;20033;-74
2022/09/15 04:34:23;;;;;;;0.03;0.03;;;12.20;99.90;;;;;;5039242;28;20069;-73
2022/09/15 04:36:49;;;;;;;0.25;0.20;;;12.20;99.90;;;;;;5039097;28;20496;-71
2022/09/15 04:39:15;;;;;;;0.00;0.00;;;12.10;99.90;;;;;;5039221;28;20045;-71
2022/09/15 04:41:40;;;;;;;0.00;0.00;;;11.90;99.90;;;;;;5037954;28;20496;-72
2022/09/15 04:44:06;;;;;;;0.00;0.00;;;11.80;99.90;;;;;;5037707;28;20049;-72
2022/09/15 04:46:32;;;;;;;2.63;1.13;;;11.70;99.90;;;;;;5039367;28;20037;-74
2022/09/15 04:48:57;;;;;;;0.95;0.80;;;11.70;99.90;;;;;;5038171;28;20048;-73
2022/09/15 04:51:23;;;;;;;0.55;0.38;;;11.80;99.90;;;;;;5037952;28;20041;-73
2022/09/15 04:53:50;;;;;;;0.00;0.00;;;11.90;99.90;;;;;;5019639;28;20063;-73
2022/09/15 04:56:22;;;;;;;0.00;0.00;;;12.00;99.90;;;;;;5036927;28;20056;-73
2022/09/15 04:58:53;;;;;;;0.00;0.00;;;12.10;99.90;;;;;;5035361;28;20061;-73
2022/09/15 05:01:22;;;;;;;0.00;0.00;;;12.20;99.90;;;;;;5018973;28;20042;-72
2022/09/15 05:03:48;;;;;;;0.00;0.00;;;12.30;99.90;;;;;;5036266;28;20079;-74
2022/09/15 05:06:19;;;;;;;1.08;0.45;;;12.30;99.90;;;;;;5037166;28;20447;-72
2022/09/15 05:08:49;;;;;;;0.63;0.20;;;12.30;99.90;;;;;;5038478;28;20041;-73
2022/09/15 05:11:16;;;;;;;0.00;0.00;;;12.30;99.90;;;;;;5038303;28;20113;-72
2022/09/15 05:13:42;;;;;;;0.03;0.03;;;12.40;99.90;;;;;;5037145;28;20047;-72
2022/09/15 05:16:23;;;;;;;0.00;0.00;;;12.40;99.90;;;;;;5034041;28;20049;-72
2022/09/15 05:18:50;;;;;;;0.80;0.40;;;12.40;99.90;;;;;;5034577;28;20078;-73
2022/09/15 05:21:18;;;;;;;0.00;0.00;;;12.40;99.90;;;;;;5038144;28;20446;-72
2022/09/15 05:23:44;;;;;;;0.10;0.00;;;12.40;99.90;;;;;;5037561;28;20610;-73
2022/09/15 05:26:18;;;;;;;0.17;0.10;;;12.30;99.90;;;;;;5036172;28;20049;-73
2022/09/15 05:28:44;;;;;;;0.00;0.00;;;12.30;99.90;;;;;;5037284;28;20046;-71
2022/09/15 05:31:17;;;;;;;0.00;0.00;;;12.20;99.90;;;;;;5037354;28;20084;-73
2022/09/15 05:33:44;;;;;;;1.98;0.65;;;12.10;99.90;;;;;;5037251;28;20049;-74
2022/09/15 05:36:09;;;;;;;0.00;0.00;;;11.80;99.90;;;;;;5037545;28;20128;-73
2022/09/15 05:38:35;;;;;;;0.05;0.05;;;11.90;99.90;;;;;;5036079;28;20099;-73
2022/09/15 05:41:15;;;;;;;0.00;0.00;;;11.80;99.90;;;;;;5034612;28;20072;-72
2022/09/15 05:43:41;;;;;;;0.00;0.00;;;11.80;99.90;;;;;;5035107;28;20044;-72
2022/09/15 05:46:08;;;;;;;0.63;0.45;;;11.70;99.90;;;;;;5034699;28;20041;-72
2022/09/15 05:48:35;;;;;;;0.00;0.00;;;11.70;99.90;;;;;;5035195;28;20045;-71
2022/09/15 05:51:01;;;;;;;0.05;0.05;;;11.80;99.90;;;;;;5036356;28;20045;-73
2022/09/15 05:53:27;;;;;;;0.00;0.00;;;11.90;99.90;;;;;;5017182;28;20044;-72
2022/09/15 05:56:01;;;;;;;0.05;0.05;;;12.00;99.90;;;;;;5017690;28;20073;-72
2022/09/15 05:58:28;;;;;;;0.00;0.00;;;12.30;99.90;;;;;;5034075;28;20128;-73
2022/09/15 06:00:54;;;;;;;0.20;0.20;;;12.40;99.90;;;;;;5034591;28;20056;-73
2022/09/15 06:03:22;;;;;;;0.15;0.15;;;12.40;99.90;;;;;;5033167;28;20060;-73
2022/09/15 06:05:48;;;;;;;0.55;0.55;;;12.50;99.90;;;;;;5033261;28;20076;-73
2022/09/15 06:08:14;;;;;;;0.20;0.20;;;12.60;99.90;;;;;;5032982;28;20037;-72
2022/09/15 06:10:40;;;;;;;0.70;0.70;;;12.70;99.90;;;;;;5035616;28;20103;-74
2022/09/15 06:13:06;;;;;;;0.00;0.00;;;12.80;99.90;;;;;;5036874;28;20045;-72
2022/09/15 06:15:32;;;;;;;0.00;0.00;;;12.90;99.90;;;;;;5037564;28;20041;-72
2022/09/15 06:17:58;;;;;;;0.15;0.10;;;13.00;99.90;;;;;;5035804;28;20073;-74
2022/09/15 06:20:24;;;;;;;0.10;0.10;;;13.10;99.90;;;;;;5036906;28;20045;-70
2022/09/15 06:22:51;;;;;;;6.60;0.32;;;13.10;99.90;;;;;;5035685;28;20555;-72
2022/09/15 06:25:17;;;;;;;1.05;1.05;;;13.10;99.90;;;;;;5037462;28;20049;-72
2022/09/15 06:27:42;;;;;;;0.00;0.00;;;13.30;99.90;;;;;;5035195;28;20052;-71
2022/09/15 06:30:09;;;;;;;3.92;1.00;;;13.40;99.90;;;;;;5036714;28;20054;-74
2022/09/15 06:32:35;;;;;;;0.00;0.00;;;13.50;99.90;;;;;;5038015;28;20037;-72
2022/09/15 06:35:07;;;;;;;0.00;0.00;;;13.60;99.90;;;;;;5037146;28;20049;-73
2022/09/15 06:37:33;;;;;;;0.00;0.00;;;13.80;99.90;;;;;;5036814;28;20101;-73
2022/09/15 06:40:00;;;;;;;3.42;1.35;;;13.90;99.90;;;;;;5037836;28;20597;-71
2022/09/15 06:42:26;;;;;;;0.28;0.17;;;14.00;99.90;;;;;;5034957;28;20149;-72
2022/09/15 06:44:52;;;;;;;0.10;0.00;;;14.20;99.90;;;;;;5016901;28;20049;-73
2022/09/15 06:47:17;;;;;;;0.00;0.00;;;14.30;99.90;;;;;;5035213;28;20034;-74
2022/09/15 06:49:44;;;;;;;0.20;0.17;;;14.40;99.90;;;;;;5036178;28;20053;-74
2022/09/15 06:52:10;;;;;;;0.00;0.00;;;14.50;99.90;;;;;;5035035;28;20049;-74
2022/09/15 06:54:36;;;;;;;0.00;0.00;;;14.60;99.90;;;;;;5034763;28;20045;-73
2022/09/15 06:57:02;;;;;;;0.00;0.00;;;14.80;99.90;;;;;;5033590;28;20531;-73
2022/09/15 06:59:27;;;;;;;0.00;0.00;;;14.80;99.90;;;;;;5035261;28;20057;-71
2022/09/15 07:01:54;;;;;;;1.08;0.28;;;14.80;99.90;;;;;;5034037;28;20064;-73
2022/09/15 07:04:20;;;;;;;0.65;0.10;;;14.80;99.90;;;;;;5034621;28;20084;-73
2022/09/15 07:06:47;;;;;;;1.00;0.08;;;14.80;99.90;;;;;;5034673;28;20390;-73
2022/09/15 07:09:12;;;;;;;0.00;0.00;;;14.90;99.90;;;;;;5035913;28;20095;-72
2022/09/15 07:11:39;;;;;;;0.75;0.30;;;14.90;99.90;;;;;;5034333;28;20041;-73
2022/09/15 07:14:04;;;;;;;0.00;0.00;;;15.10;99.90;;;;;;5035474;28;20047;-74
2022/09/15 07:16:30;;;;;;;0.00;0.00;;;15.30;99.90;;;;;;5033825;28;20057;-73
2022/09/15 07:18:59;;;;;;;0.00;0.00;;;15.40;99.90;;;;;;5033134;28;20140;-72
2022/09/15 07:21:25;;;;;;;0.03;0.03;;;15.50;99.90;;;;;;5034567;28;20497;-72
2022/09/15 07:23:50;;;;;;;0.00;0.00;;;15.60;99.90;;;;;;5015242;28;20037;-72
2022/09/15 07:26:24;;;;;;;0.00;0.00;;;15.70;99.90;;;;;;5033461;28;20042;-71
2022/09/15 07:28:58;;;;;;;0.00;0.00;;;15.80;99.90;;;;;;5034638;28;20041;-72
2022/09/15 07:31:27;;;;;;;0.10;0.10;;;16.00;99.90;;;;;;5035304;28;20049;-74
2022/09/15 07:33:53;;;;;;;0.00;0.00;;;16.00;99.90;;;;;;5019000;28;20227;-71
2022/09/15 07:36:19;;;;;;;0.00;0.00;;;16.10;99.90;;;;;;5033906;28;20465;-72
2022/09/15 07:38:47;;;;;;;0.00;0.00;;;16.20;99.90;;;;;;5033445;28;20105;-72
2022/09/15 07:41:16;;;;;;;0.88;0.77;;;16.30;99.90;;;;;;5034031;28;20457;-72
2022/09/15 07:43:49;;;;;;;0.65;0.63;;;16.40;99.90;;;;;;5036728;28;20053;-72
2022/09/15 07:46:16;;;;;;;0.00;0.00;;;16.60;99.90;;;;;;5035892;28;20055;-72
2022/09/15 07:48:46;;;;;;;0.17;0.17;;;16.90;99.90;;;;;;5035948;28;20056;-72
2022/09/15 07:51:12;;;;;;;0.15;0.15;;;17.10;99.90;;;;;;5036153;28;20104;-73
2022/09/15 07:53:38;;;;;;;0.10;0.10;;;17.20;99.90;;;;;;5037458;28;20037;-74
2022/09/15 07:56:03;;;;;;;0.20;0.20;;;17.30;99.90;;;;;;5037680;28;20072;-73
2022/09/15 07:58:31;;;;;;;0.00;0.00;;;17.10;99.90;;;;;;5035887;28;20124;-72
2022/09/15 08:01:04;;;;;;;0.65;0.30;;;17.10;99.90;;;;;;5036067;28;20045;-73
2022/09/15 08:03:29;;;;;;;0.13;0.13;;;17.00;99.90;;;;;;5035343;28;20049;-71
2022/09/15 08:05:59;;;;;;;1.17;0.30;;;17.10;99.90;;;;;;5036534;28;20052;-71
2022/09/15 08:08:25;;;;;;;0.00;0.00;;;17.10;99.90;;;;;;5035529;28;20510;-74
2022/09/15 08:10:51;;;;;;;0.00;0.00;;;16.90;99.90;;;;;;5035396;28;20713;-71
2022/09/15 08:13:17;;;;;;;0.00;0.00;;;16.80;99.90;;;;;;5036322;28;20056;-73
2022/09/15 08:15:44;;;;;;;0.00;0.00;;;16.60;99.90;;;;;;5034251;28;20535;-73
2022/09/15 08:18:10;;;;;;;0.30;0.28;;;16.40;99.90;;;;;;5034400;28;20045;-72
2022/09/15 08:20:40;;;;;;;0.00;0.00;;;16.30;99.90;;;;;;5019914;28;20147;-70
2022/09/15 08:23:06;;;;;;;1.35;0.90;;;16.20;99.90;;;;;;5035271;28;20045;-72
2022/09/15 08:25:32;;;;;;;0.00;0.00;;;16.30;99.90;;;;;;5035055;28;20057;-72
2022/09/15 08:27:58;;;;;;;0.00;0.00;;;16.50;99.90;;;;;;5033615;28;20041;-72
2022/09/15 08:30:24;;;;;;;2.92;0.80;;;16.70;99.90;;;;;;5037230;28;20056;-73
2022/09/15 08:32:50;;;;;;;0.10;0.10;;;17.30;99.90;;;;;;5036450;28;20674;-72
2022/09/15 08:35:16;;;;;;;0.00;0.00;;;17.50;99.90;;;;;;5033290;28;20060;-73
2022/09/15 08:37:42;;;;;;;1.13;0.60;;;18.40;99.90;;;;;;5032106;28;20044;-73
2022/09/15 08:40:16;;;;;;;1.55;0.30;;;18.40;99.90;;;;;;5032863;28;20559;-73
2022/09/15 08:42:43;;;;;;;0.03;0.03;;;18.50;99.90;;;;;;5033052;28;20060;-72
2022/09/15 08:45:24;;;;;;;1.02;0.40;;;18.80;99.90;;;;;;5033234;28;20041;-74
2022/09/15 08:47:57;;;;;;;0.68;0.22;;;19.10;99.90;;;;;;5032227;28;20057;-74
2022/09/15 08:50:34;;;;;;;0.40;0.25;;;19.30;99.90;;;;;;5032754;28;20114;-71
2022/09/15 08:53:11;;;;;;;0.00;0.00;;;19.00;99.90;;;;;;5033431;28;20097;-73
2022/09/15 08:55:58;;;;;;;1.45;0.45;;;18.30;99.90;;;;;;5033267;28;20048;-73
2022/09/15 08:58:27;;;;;;;0.00;0.00;;;17.60;99.90;;;;;;5030846;28;20046;-73
2022/09/15 09:01:17;;;;;;;0.10;0.10;;;17.60;99.90;;;;;;5033644;28;20510;-74
2022/09/15 09:04:18;;;;;;;0.10;0.10;;;18.00;99.90;;;;;;5032425;28;20045;-73
2022/09/15 09:07:21;;;;;;;0.10;0.10;;;18.30;99.90;;;;;;5031890;28;20096;-72
2022/09/15 09:10:11;;;;;;;0.00;0.00;;;18.60;99.90;;;;;;5032079;28;20094;-72
2022/09/15 09:13:02;;;;;;;0.00;0.00;;;18.50;99.90;;;;;;5031629;28;20045;-72
2022/09/15 09:15:50;;;;;;;1.85;0.52;;;18.30;99.90;;;;;;5033528;28;20092;-72
2022/09/15 09:18:33;;;;;;;0.00;0.00;;;18.10;99.90;;;;;;5031462;28;20051;-73
2022/09/15 09:21:11;;;;;;;0.10;0.10;;;17.80;99.90;;;;;;5032492;28;20057;-73
2022/09/15 09:23:51;;;;;;;0.17;0.10;;;17.20;99.90;;;;;;5031179;28;20484;-73
2022/09/15 09:26:17;;;;;;;0.45;0.45;;;16.70;99.90;;;;;;5030890;28;20057;-72
2022/09/15 09:28:59;;;;;;;0.00;0.00;;;16.50;99.90;;;;;;5027751;28;20052;-72
2022/09/15 09:31:26;;;;;;;0.13;0.10;;;16.30;99.90;;;;;;5029781;28;20116;-72
2022/09/15 09:34:13;;;;;;;0.00;0.00;;;16.30;99.90;;;;;;5011537;28;20079;-72
2022/09/15 09:36:39;;;;;;;0.65;0.22;;;16.40;99.90;;;;;;5032667;28;20053;-72
2022/09/15 09:39:05;;;;;;;0.15;0.15;;;16.50;99.90;;;;;;5031491;28;20045;-73
2022/09/15 09:41:35;;;;;;;0.00;0.00;;;16.90;99.90;;;;;;5032067;28;20048;-72
2022/09/15 09:44:05;;;;;;;0.35;0.20;;;17.30;99.90;;;;;;5031920;28;20045;-73
2022/09/15 09:46:31;;;;;;;0.10;0.10;;;17.60;99.90;;;;;;5035715;28;20115;-72
2022/09/15 09:49:09;;;;;;;0.00;0.00;;;18.00;99.90;;;;;;5021836;28;20049;-74
2022/09/15 09:51:52;;;;;;;2.63;0.32;;;18.40;99.90;;;;;;5037385;28;20053;-73
2022/09/15 09:54:20;;;;;;;1.63;0.77;;;18.30;99.90;;;;;;5036839;28;20084;-72
2022/09/15 09:56:50;;;;;;;0.00;0.00;;;18.60;99.90;;;;;;5034733;28;20053;-73
2022/09/15 09:59:40;;;;;;;0.45;0.35;;;19.00;99.90;;;;;;5035961;28;20080;-73
2022/09/15 10:02:12;;;;;;;0.00;0.00;;;19.00;99.90;;;;;;5034803;28;20045;-72
2022/09/15 10:04:41;;;;;;;0.13;0.10;;;18.60;99.90;;;;;;5035728;28;20091;-74
2022/09/15 10:07:07;;;;;;;0.47;0.47;;;17.50;99.90;;;;;;5030372;28;20081;-73
2022/09/15 10:09:33;;;;;;;0.38;0.28;;;16.10;99.90;;;;;;5028772;28;20061;-73
2022/09/15 10:12:02;;;;;;;0.43;0.25;;;15.70;99.90;;;;;;5033257;28;20041;-73
2022/09/15 10:14:37;;;;;;;0.32;0.30;;;15.60;99.90;;;;;;5035301;28;21178;-72
2022/09/15 10:17:21;;;;;;;1.25;0.98;;;15.70;99.90;;;;;;5034820;28;20055;-73
2022/09/15 10:19:55;;;;;;;1.85;0.20;;;15.70;99.90;;;;;;5032968;28;20046;-74
2022/09/15 10:22:34;;;;;;;0.00;0.00;;;15.70;99.90;;;;;;5033855;28;20179;-74
2022/09/15 10:25:03;;;;;;;2.83;0.65;;;15.60;99.90;;;;;;5032855;28;20053;-73
2022/09/15 10:27:32;;;;;;;0.38;0.35;;;15.40;99.90;;;;;;5033296;28;20192;-73
2022/09/15 10:30:18;;;;;;;0.00;0.00;;;15.40;99.90;;;;;;5012506;28;20060;-74
2022/09/15 10:32:44;;;;;;;0.00;0.00;;;15.80;99.90;;;;;;5030043;28;20140;-73
2022/09/15 10:35:13;;;;;;;0.00;0.00;;;16.10;99.90;;;;;;5031856;28;20142;-73
2022/09/15 10:38:07;;;;;;;0.10;0.10;;;17.60;99.90;;;;;;5029238;28;20049;-73
2022/09/15 10:40:44;;;;;;;1.35;0.45;;;17.70;99.90;;;;;;5029102;28;20077;-74
2022/09/15 10:43:36;;;;;;;0.10;0.10;;;18.70;99.90;;;;;;5032405;28;20049;-73
2022/09/15 10:46:11;;;;;;;0.20;0.13;;;19.20;99.90;;;;;;5031249;28;20523;-75
2022/09/15 10:48:44;;;;;;;0.00;0.00;;;19.70;99.90;;;;;;5030992;28;20068;-74
2022/09/15 10:51:42;;;;;;;0.00;0.00;;;19.80;99.90;;;;;;5031231;28;20041;-73
2022/09/15 10:54:49;;;;;;;1.38;0.40;;;20.20;99.90;;;;;;5031474;28;20128;-73
2022/09/15 10:57:43;;;;;;;0.00;0.00;;;20.60;99.90;;;;;;4998067;28;20080;-72
2022/09/15 11:00:12;;;;;;;0.00;0.00;;;20.80;99.10;;;;;;5032990;28;20089;-74
2022/09/15 11:02:47;;;;;;;8.93;0.35;;;18.90;99.90;;;;;;5038042;28;20072;-72
2022/09/15 11:05:41;;;;;;;0.00;0.00;;;17.10;99.90;;;;;;5038383;28;20176;-75
2022/09/15 11:08:24;;;;;;;0.00;0.00;;;16.10;99.90;;;;;;5037340;28;20053;-72
2022/09/15 11:11:12;;;;;;;0.88;0.65;;;15.40;99.90;;;;;;5038152;28;20045;-72
2022/09/15 11:13:41;;;;;;;0.10;0.10;;;15.30;99.90;;;;;;5037622;28;20046;-73
2022/09/15 11:16:40;;;;;;;0.00;0.00;;;15.40;99.90;;;;;;5037379;28;20041;-73
2022/09/15 11:19:29;;;;;;;0.00;0.00;;;15.40;99.90;;;;;;5036702;28;20504;-73
2022/09/15 11:22:15;;;;;;;0.00;0.00;;;15.90;99.90;;;;;;5038558;28;20064;-73
2022/09/15 11:24:59;;;;;;;0.00;0.00;;;16.30;99.90;;;;;;5037556;28;20155;-73
2022/09/15 11:27:38;;;;;;;5.47;0.55;;;16.90;99.90;;;;;;5037618;28;20041;-73
2022/09/15 11:30:10;;;;;;;0.10;0.10;;;17.40;99.90;;;;;;5037501;28;20053;-72
2022/09/15 11:32:49;;;;;;;0.10;0.10;;;17.90;99.90;;;;;;5036738;28;20044;-73
2022/09/15 11:35:41;;;;;;;0.20;0.20;;;18.40;99.90;;;;;;5036719;28;20053;-72
2022/09/15 11:38:26;;;;;;;0.10;0.10;;;18.50;99.90;;;;;;5036710;28;20045;-73
2022/09/15 11:41:01;;;;;;;0.00;0.00;;;18.70;99.90;;;;;;5034994;28;20091;-73
2022/09/15 11:43:54;;;;;;;0.00;0.00;;;18.70;99.90;;;;;;5033409;28;20091;-73
2022/09/15 11:46:29;;;;;;;0.65;0.43;;;18.80;99.90;;;;;;5036136;28;20049;-72
2022/09/15 11:49:23;;;;;;;0.00;0.00;;;19.00;99.90;;;;;;5035765;28;20446;-72
2022/09/15 11:52:00;;;;;;;0.10;0.10;;;19.20;93.80;;;;;;4991508;28;20520;-73
2022/09/15 11:54:36;;;;;;;0.00;0.00;;;19.30;99.00;;;;;;5037492;28;20409;-72
2022/09/15 11:57:01;;;;;;;2.80;0.43;;;19.40;95.90;;;;;;5038221;28;20057;-73
2022/09/15 11:59:39;;;;;;;0.47;0.25;;;19.60;97.70;;;;;;5020462;28;20052;-74
2022/09/15 12:02:10;;;;;;;0.10;0.10;;;19.60;97.80;;;;;;5036465;28;20045;-72
2022/09/15 12:04:56;;;;;;;0.00;0.00;;;19.00;99.30;;;;;;5037027;28;20049;-72
2022/09/15 12:07:27;;;;;;;0.00;0.00;;;19.00;96.00;;;;;;5036881;28;20076;-73
2022/09/15 12:09:55;;;;;;;0.32;0.20;;;19.00;94.40;;;;;;5037560;28;20046;-74
2022/09/15 12:12:22;;;;;;;0.13;0.10;;;19.00;91.00;;;;;;5036337;28;20378;-74
2022/09/15 12:14:50;;;;;;;0.00;0.00;;;19.20;86.10;;;;;;5034617;28;20065;-73
2022/09/15 12:17:44;;;;;;;0.00;0.00;;;20.30;78.80;;;;;;5034448;28;20111;-74
2022/09/15 12:20:24;;;;;;;0.20;0.15;;;21.00;67.60;;;;;;5035612;28;20076;-74
2022/09/15 12:23:14;;;;;;;7.88;0.57;;;21.30;41.10;;;;;;5036304;28;20555;-73
2022/09/15 12:26:17;;;;;;;0.05;0.05;;;22.00;28.80;;;;;;5036639;28;20064;-73
2022/09/15 12:28:45;;;;;;;0.00;0.00;;;22.40;40.60;;;;;;5033251;28;20145;-74
2022/09/15 12:31:34;;;;;;;0.00;0.00;;;20.90;46.40;;;;;;5032718;28;20053;-72
2022/09/15 12:34:25;;;;;;;0.40;0.30;;;20.00;86.20;;;;;;5035481;28;20048;-72
2022/09/15 12:37:05;;;;;;;0.00;0.00;;;20.60;92.10;;;;;;5035095;28;20045;-71
2022/09/15 12:39:52;;;;;;;0.00;0.00;;;21.00;78.70;;;;;;5035431;28;20052;-73
2022/09/15 12:42:24;;;;;;;0.00;0.00;;;22.00;57.20;;;;;;5034108;28;20049;-74
2022/09/15 12:44:57;;;;;;;0.20;0.20;;;21.30;41.70;;;;;;5033837;28;20531;-72
2022/09/15 12:47:31;;;;;;;0.00;0.00;;;20.80;48.80;;;;;;5034285;28;20057;-74
2022/09/15 12:50:19;;;;;;;0.00;0.00;;;20.80;41.90;;;;;;5033914;28;20037;-72
2022/09/15 12:53:19;;;;;;;0.05;0.05;;;20.60;25.20;;;;;;5033376;28;20045;-72
2022/09/15 12:55:54;;;;;;;0.00;0.00;;;20.50;53.80;;;;;;5023307;28;20092;-71
2022/09/15 12:58:36;;;;;;;0.00;0.00;;;21.10;31.50;;;;;;5031834;28;20064;-72
2022/09/15 13:01:44;;;;;;;0.08;0.08;;;21.90;24.90;;;;;;5032075;28;20050;-74
2022/09/15 13:04:21;;;;;;;0.00;0.00;;;21.90;19.40;;;;;;5017231;28;20057;-73
2022/09/15 13:07:17;;;;;;;0.00;0.00;;;21.00;13.00;;;;;;5015322;28;20057;-72
2022/09/15 13:09:54;;;;;;;0.00;0.00;;;20.40;34.20;;;;;;5014057;28;20107;-72
2022/09/15 13:12:21;;;;;;;0.00;0.00;;;19.90;40.00;;;;;;5034856;28;20049;-73
2022/09/15 13:14:48;;;;;;;0.00;0.00;;;19.90;37.10;;;;;;5035482;28;20053;-73
2022/09/15 13:17:24;;;;;;;0.85;0.25;;;19.80;40.90;;;;;;5033256;28;20045;-71
2022/09/15 13:19:53;;;;;;;0.15;0.15;;;19.90;40.40;;;;;;5029204;28;20128;-73